• Flight school & aeroclub

    Wings of Linz

    Fliegen - die Freiheit, von der andere nur träumen

    King
  • Aktuelles

    Neuigkeiten

    und News rund um unseren Club weiterlesen

    Pilotenbild
  • Ihr Weg zum PPL

    Fliegen lernen

    -für viele ein Traum. Träumen Sie nicht länger, lernen Sie fliegen weiterlesen

    Cockpit

Kontakt

Wings of Linz
Flight School & Aeroclub



Flughafenstraße 1
4063 Hörsching

Telefon: +43 699 10981511

Kontaktformular

Name
 
 
email Adresse
 
 
Betreff
 
 
Nachricht
 
 
Captcha
 
captcha
 
 
 

Flugvorbereitung

Wir weisen darauf hin, dass eine Buchung unserer Flugzeuge intakte und aktuelle Lizenzen voraussetzt!

METAR LOWL 210920Z 28008KT 9999 -RA FEW007 SCT013 BKN020 07/05 Q1017 TEMPO RA SCT007 BKN012

Links

Flugplatzverzeichnis Österreich

Blue Danube AirSport Linz

Airports.de

Blue Danube Airport Linz


ZAMG

ORF Wetter

Wetterzentrale


Bundesanstallt für Verkehr

Bundesanstelle für Fluguntersuchung DE


Eurocontrol

JAA

EASA

CFMU

Österreichische Behörden

acg aopa
aero

Partner

aeronautx
union